createdAt,value
2018-09-13T00:03:30.515Z,48.2
2018-09-13T00:08:29.497Z,48.2
2018-09-13T00:13:28.451Z,48.2
2018-09-13T00:18:27.436Z,48.2
2018-09-13T00:23:26.066Z,48.2
2018-09-13T00:28:25.291Z,48.2
2018-09-13T00:33:24.108Z,48.2
2018-09-13T00:38:23.060Z,48.2
2018-09-13T00:43:22.015Z,48.2
2018-09-13T00:48:20.990Z,48.2
2018-09-13T00:53:19.774Z,48.2
2018-09-13T00:58:18.870Z,48.2
2018-09-13T01:03:17.947Z,48.2
2018-09-13T01:08:17.099Z,48.2
2018-09-13T01:13:16.140Z,48.2
2018-09-13T01:18:14.827Z,48.2
2018-09-13T01:23:13.774Z,48.2
2018-09-13T01:28:12.680Z,48.2
2018-09-13T01:33:11.346Z,48.2
2018-09-13T01:38:10.609Z,48.2
2018-09-13T01:43:09.458Z,48.2
2018-09-13T01:48:08.473Z,48.2
2018-09-13T01:53:07.434Z,48.3
2018-09-13T01:58:06.532Z,48.2
2018-09-13T02:03:05.106Z,48.2
2018-09-13T02:08:04.235Z,48.2
2018-09-13T02:13:03.157Z,48.2
2018-09-13T02:18:01.870Z,48.2
2018-09-13T02:23:00.631Z,48.3
2018-09-13T02:27:59.627Z,48.2
2018-09-13T02:32:58.559Z,48.2
2018-09-13T02:37:57.238Z,48.2
2018-09-13T02:42:56.294Z,48.2
2018-09-13T02:47:54.823Z,48.3
2018-09-13T02:52:53.821Z,48.2
2018-09-13T02:57:52.817Z,48.3
2018-09-13T03:02:51.731Z,48.3
2018-09-13T03:07:50.785Z,48.3
2018-09-13T03:12:49.722Z,48.3
2018-09-13T03:17:48.651Z,48.3
2018-09-13T03:22:47.568Z,48.3
2018-09-13T03:27:46.855Z,48.3
2018-09-13T03:32:45.706Z,48.3
2018-09-13T03:37:44.626Z,48.3
2018-09-13T03:42:43.572Z,48.3
2018-09-13T03:47:42.602Z,48.3
2018-09-13T03:52:41.805Z,48.3
2018-09-13T03:57:40.618Z,48.3
2018-09-13T04:02:39.691Z,48.3
2018-09-13T04:07:38.553Z,48.3
2018-09-13T04:12:37.549Z,48.4
2018-09-13T04:17:36.490Z,48.3
2018-09-13T04:22:35.403Z,48.4
2018-09-13T04:27:34.387Z,48.4
2018-09-13T04:32:33.353Z,48.4
2018-09-13T04:37:32.276Z,48.4
2018-09-13T04:42:31.313Z,48.4
2018-09-13T04:47:30.488Z,48.3
2018-09-13T04:52:29.602Z,48.3
2018-09-13T04:57:28.502Z,48.3
2018-09-13T05:02:27.553Z,48.3
2018-09-13T05:07:26.542Z,48.3
2018-09-13T05:12:25.174Z,48.3
2018-09-13T05:17:24.326Z,48.3
2018-09-13T05:22:23.561Z,48.4
2018-09-13T05:27:22.858Z,48.4
2018-09-13T05:32:21.969Z,48.4
2018-09-13T05:37:20.965Z,48.4
2018-09-13T05:42:20.194Z,48.4
2018-09-13T05:47:19.128Z,48.4
2018-09-13T05:52:18.271Z,48.4
2018-09-13T05:57:17.324Z,48.4
2018-09-13T06:02:16.413Z,48.5
2018-09-13T06:07:15.350Z,48.5
2018-09-13T06:12:14.610Z,48.5
2018-09-13T06:17:13.827Z,48.5
2018-09-13T06:22:12.758Z,48.6
2018-09-13T06:27:11.723Z,48.6
2018-09-13T06:32:10.936Z,48.6
2018-09-13T06:37:09.980Z,48.6
2018-09-13T06:42:08.962Z,48.7
2018-09-13T06:47:08.040Z,48.7
2018-09-13T06:52:06.988Z,48.8
2018-09-13T06:57:06.084Z,48.8
2018-09-13T07:02:05.028Z,48.9
2018-09-13T07:07:04.165Z,48.9
2018-09-13T07:12:03.090Z,49
2018-09-13T07:17:02.595Z,49
2018-09-13T07:22:01.625Z,49.1
2018-09-13T07:27:00.768Z,49.1
2018-09-13T07:31:59.792Z,49.2
2018-09-13T07:36:58.924Z,49.2
2018-09-13T07:41:58.108Z,49.3
2018-09-13T07:46:57.159Z,49.4
2018-09-13T07:51:56.377Z,49.4
2018-09-13T07:56:55.766Z,49.5
2018-09-13T08:01:54.702Z,49.5
2018-09-13T08:06:53.931Z,49.6
2018-09-13T08:11:53.416Z,49.7
2018-09-13T08:16:52.044Z,49.7
2018-09-13T08:21:51.360Z,49.7
2018-09-13T08:26:50.701Z,49.8
2018-09-13T08:31:49.913Z,49.8
2018-09-13T08:36:49.082Z,49.8
2018-09-13T08:41:48.141Z,49.9
2018-09-13T08:46:47.237Z,49.9
2018-09-13T08:51:46.292Z,49.9
2018-09-13T08:56:45.386Z,49.9
2018-09-13T09:01:44.718Z,49.9
2018-09-13T09:06:43.791Z,50
2018-09-13T09:11:42.940Z,50
2018-09-13T09:16:42.022Z,50
2018-09-13T09:21:41.387Z,50
2018-09-13T09:26:40.724Z,50
2018-09-13T09:31:39.746Z,50
2018-09-13T09:36:38.541Z,50
2018-09-13T09:41:37.864Z,50
2018-09-13T09:46:36.908Z,50.1
2018-09-13T09:51:36.058Z,50.1
2018-09-13T09:56:35.265Z,50.1
2018-09-13T10:01:34.400Z,50.1
2018-09-13T10:06:33.766Z,50.1
2018-09-13T10:11:32.751Z,50
2018-09-13T10:16:32.127Z,50
2018-09-13T10:21:31.363Z,50.1
2018-09-13T10:26:30.560Z,50.1
2018-09-13T10:31:29.758Z,49.9
2018-09-13T10:36:28.950Z,49.9
2018-09-13T10:41:28.488Z,49.9
2018-09-13T10:46:27.038Z,49.9
2018-09-13T10:51:26.122Z,49.8
2018-09-13T10:56:25.423Z,49.8
2018-09-13T11:01:24.759Z,49.8
2018-09-13T11:06:24.054Z,49.8
2018-09-13T11:11:23.375Z,49.8
2018-09-13T11:16:22.786Z,49.8
2018-09-13T11:21:22.139Z,49.8
2018-09-13T11:26:21.313Z,49.7
2018-09-13T11:31:20.422Z,49.7
2018-09-13T11:36:19.419Z,49.7
2018-09-13T11:41:18.654Z,49.8
2018-09-13T11:46:17.898Z,49.8
2018-09-13T11:51:16.758Z,49.8
2018-09-13T11:56:16.093Z,49.8
2018-09-13T12:01:15.401Z,49.8
2018-09-13T12:06:14.572Z,49.7
2018-09-13T12:11:13.792Z,49.7
2018-09-13T12:16:12.938Z,49.7
2018-09-13T12:21:12.655Z,49.7
2018-09-13T12:26:11.802Z,49.7
2018-09-13T12:31:10.964Z,49.7
2018-09-13T12:36:10.309Z,49.7
2018-09-13T12:41:09.732Z,49.7
2018-09-13T12:46:08.750Z,49.7
2018-09-13T12:51:07.962Z,49.7
2018-09-13T12:56:07.147Z,49.6
2018-09-13T13:01:06.506Z,49.6
2018-09-13T13:06:05.789Z,49.6
2018-09-13T13:11:04.948Z,49.6
2018-09-13T13:16:04.160Z,49.5
2018-09-13T13:21:03.435Z,49.5
2018-09-13T13:26:02.563Z,49.5
2018-09-13T13:31:01.464Z,49.5
2018-09-13T13:36:00.642Z,49.5
2018-09-13T13:40:59.826Z,49.5
2018-09-13T13:45:58.923Z,49.5
2018-09-13T13:50:58.184Z,49.4
2018-09-13T13:55:57.233Z,49.4
2018-09-13T14:00:56.252Z,49.4
2018-09-13T14:05:55.590Z,49.4
2018-09-13T14:10:54.791Z,49.4
2018-09-13T14:15:54.097Z,49.4
2018-09-13T14:20:53.668Z,49.4
2018-09-13T14:25:52.870Z,49.4
2018-09-13T14:30:52.140Z,49.4
2018-09-13T14:35:51.471Z,49.4
2018-09-13T14:40:50.939Z,49.4
2018-09-13T14:45:50.289Z,49.4
2018-09-13T14:50:49.909Z,49.3
2018-09-13T14:55:49.399Z,49.4
2018-09-13T15:00:48.700Z,49.4
2018-09-13T15:05:47.782Z,49.3
2018-09-13T15:10:46.870Z,49.3
2018-09-13T15:15:46.028Z,49.3
2018-09-13T15:20:45.109Z,49.3
2018-09-13T15:25:44.553Z,49.3
2018-09-13T15:30:43.847Z,49.3
2018-09-13T15:35:43.083Z,49.3
2018-09-13T15:40:42.369Z,49.3
2018-09-13T15:45:41.690Z,49.3
2018-09-13T15:50:41.250Z,49.3
2018-09-13T15:55:40.572Z,49.3
2018-09-13T16:00:39.847Z,49.2
2018-09-13T16:05:39.246Z,49.2
2018-09-13T16:10:38.567Z,49.2
2018-09-13T16:15:37.864Z,49.2
2018-09-13T16:20:36.951Z,49.1
2018-09-13T16:25:36.515Z,49.1
2018-09-13T16:30:35.752Z,49.1
2018-09-13T16:35:35.003Z,49
2018-09-13T16:40:34.343Z,49.1
2018-09-13T16:45:33.557Z,49.1
2018-09-13T16:50:32.809Z,49.1
2018-09-13T16:55:32.043Z,49.1
2018-09-13T17:00:31.501Z,49.1
2018-09-13T17:05:30.674Z,49.1
2018-09-13T17:10:29.873Z,49.1
2018-09-13T17:15:29.237Z,49
2018-09-13T17:20:28.960Z,49
2018-09-13T17:25:28.135Z,49
2018-09-13T17:30:27.431Z,49
2018-09-13T17:35:26.435Z,49
2018-09-13T17:40:25.801Z,49
2018-09-13T17:45:25.223Z,49
2018-09-13T17:50:24.441Z,49
2018-09-13T17:55:23.777Z,48.9
2018-09-13T18:00:23.024Z,48.9
2018-09-13T18:05:22.275Z,48.9
2018-09-13T18:10:21.608Z,48.9
2018-09-13T18:15:21.200Z,48.9
2018-09-13T18:20:20.608Z,48.9
2018-09-13T18:25:20.002Z,48.9
2018-09-13T18:30:19.543Z,48.9
2018-09-13T18:35:19.217Z,48.9
2018-09-13T18:40:18.556Z,48.9
2018-09-13T18:45:17.947Z,48.9
2018-09-13T18:50:17.554Z,48.8
2018-09-13T18:55:16.978Z,48.8
2018-09-13T19:00:15.936Z,48.8
2018-09-13T19:05:15.362Z,48.8
2018-09-13T19:10:14.642Z,48.8
2018-09-13T19:15:14.071Z,48.8
2018-09-13T19:20:13.343Z,48.8
2018-09-13T19:25:12.680Z,48.8
2018-09-13T19:30:12.109Z,48.8
2018-09-13T19:35:11.456Z,48.8
2018-09-13T19:40:10.960Z,48.8
2018-09-13T19:45:10.369Z,48.7
2018-09-13T19:50:09.565Z,48.7
2018-09-13T19:55:08.867Z,48.6
2018-09-13T20:00:08.098Z,48.7
2018-09-13T20:05:07.748Z,48.7
2018-09-13T20:10:06.961Z,48.7
2018-09-13T20:15:06.303Z,48.7
2018-09-13T20:20:05.621Z,48.7
2018-09-13T20:25:04.815Z,48.7
2018-09-13T20:30:04.289Z,48.7
2018-09-13T20:35:03.069Z,48.7
2018-09-13T20:40:03.220Z,48.7
2018-09-13T20:45:02.448Z,48.6
2018-09-13T20:50:01.409Z,48.6
2018-09-13T20:55:00.458Z,48.6
2018-09-13T21:00:00.036Z,48.6
2018-09-13T21:04:59.659Z,48.6
2018-09-13T21:09:58.851Z,48.6
2018-09-13T21:14:58.335Z,48.7
2018-09-13T21:19:57.701Z,48.7
2018-09-13T21:24:56.931Z,48.6
2018-09-13T21:29:56.672Z,48.6
2018-09-13T21:34:56.041Z,48.6
2018-09-13T21:39:55.377Z,48.6
2018-09-13T21:44:54.650Z,48.6
2018-09-13T21:49:53.574Z,48.6
2018-09-13T21:54:52.984Z,48.6
2018-09-13T21:59:52.169Z,48.6
2018-09-13T22:04:51.610Z,48.6
2018-09-13T22:09:50.870Z,48.6
2018-09-13T22:14:50.238Z,48.6
2018-09-13T22:19:49.508Z,48.7
2018-09-13T22:24:48.700Z,48.7
2018-09-13T22:29:47.915Z,48.7
2018-09-13T22:34:47.084Z,48.7
2018-09-13T22:39:45.990Z,48.7
2018-09-13T22:44:45.291Z,48.7
2018-09-13T22:49:44.294Z,48.6
2018-09-13T22:54:43.518Z,48.6
2018-09-13T22:59:42.832Z,48.6
2018-09-13T23:04:41.895Z,48.6
2018-09-13T23:09:40.655Z,48.6
2018-09-13T23:14:39.817Z,48.6
2018-09-13T23:19:38.750Z,48.7
2018-09-13T23:24:38.089Z,48.7
2018-09-13T23:29:37.243Z,48.7
2018-09-13T23:34:36.619Z,48.7
2018-09-13T23:39:36.599Z,48.7
2018-09-13T23:44:35.910Z,48.7
2018-09-13T23:49:35.391Z,48.6
2018-09-13T23:54:34.515Z,48.6
2018-09-13T23:59:33.776Z,48.6
